sensor_id;sensor_type;location;lat;lon;timestamp;pressure;altitude;pressure_sealevel;temperature;humidity
51849;BME280;38952;51.090;-1.832;2023-02-14T00:21:34;101815.44;;;6.04;90.48
51849;BME280;38952;51.090;-1.832;2023-02-14T00:24:54;101839.97;;;6.18;90.20
51849;BME280;38952;51.090;-1.832;2023-02-14T00:27:31;101793.00;;;5.89;90.03
51849;BME280;38952;51.090;-1.832;2023-02-14T00:45:05;101786.91;;;5.80;91.29
51849;BME280;38952;51.090;-1.832;2023-02-14T01:15:09;101810.00;;;6.04;91.68
51849;BME280;38952;51.090;-1.832;2023-02-14T01:32:11;101826.16;;;5.77;91.76
51849;BME280;38952;51.090;-1.832;2023-02-14T01:34:40;101820.25;;;5.67;92.75
51849;BME280;38952;51.090;-1.832;2023-02-14T01:37:24;101778.09;;;5.36;92.75
51849;BME280;38952;51.090;-1.832;2023-02-14T01:40:02;101831.91;;;5.61;92.18
51849;BME280;38952;51.090;-1.832;2023-02-14T01:42:38;101801.66;;;5.36;93.26
51849;BME280;38952;51.090;-1.832;2023-02-14T01:45:20;101836.84;;;5.51;92.96
51849;BME280;38952;51.090;-1.832;2023-02-14T01:48:06;101839.75;;;5.49;93.31
51849;BME280;38952;51.090;-1.832;2023-02-14T01:57:07;101833.84;;;5.39;92.96
51849;BME280;38952;51.090;-1.832;2023-02-14T01:59:46;101782.78;;;4.99;93.24
51849;BME280;38952;51.090;-1.832;2023-02-14T02:02:30;101776.66;;;4.90;93.33
51849;BME280;38952;51.090;-1.832;2023-02-14T02:04:58;101778.69;;;4.82;94.04
51849;BME280;38952;51.090;-1.832;2023-02-14T02:07:25;101816.38;;;4.98;93.77
51849;BME280;38952;51.090;-1.832;2023-02-14T02:10:40;101830.25;;;5.10;93.94
51849;BME280;38952;51.090;-1.832;2023-02-14T02:13:37;101830.69;;;5.14;93.85
51849;BME280;38952;51.090;-1.832;2023-02-14T02:26:02;101842.22;;;5.22;94.19
51849;BME280;38952;51.090;-1.832;2023-02-14T02:59:08;101824.91;;;4.74;96.14
51849;BME280;38952;51.090;-1.832;2023-02-14T03:08:10;101786.84;;;4.60;96.03
51849;BME280;38952;51.090;-1.832;2023-02-14T03:11:15;101795.22;;;4.65;95.59
51849;BME280;38952;51.090;-1.832;2023-02-14T03:20:20;101833.34;;;4.85;95.87
51849;BME280;38952;51.090;-1.832;2023-02-14T03:32:58;101797.28;;;4.63;96.08
51849;BME280;38952;51.090;-1.832;2023-02-14T03:42:20;101781.72;;;4.72;96.09
51849;BME280;38952;51.090;-1.832;2023-02-14T03:48:11;101803.97;;;5.11;95.42
51849;BME280;38952;51.090;-1.832;2023-02-14T03:50:58;101803.63;;;5.20;95.81
51849;BME280;38952;51.090;-1.832;2023-02-14T03:53:27;101789.81;;;5.15;95.81
51849;BME280;38952;51.090;-1.832;2023-02-14T03:58:47;101817.19;;;5.49;95.04
51849;BME280;38952;51.090;-1.832;2023-02-14T04:04:41;101792.94;;;5.40;95.65
51849;BME280;38952;51.090;-1.832;2023-02-14T04:07:19;101820.16;;;5.54;95.48
51849;BME280;38952;51.090;-1.832;2023-02-14T04:09:48;101797.09;;;5.43;94.96
51849;BME280;38952;51.090;-1.832;2023-02-14T04:12:15;101817.25;;;5.55;95.09
51849;BME280;38952;51.090;-1.832;2023-02-14T04:14:44;101790.84;;;5.42;94.39
51849;BME280;38952;51.090;-1.832;2023-02-14T04:17:11;101803.00;;;5.47;94.17
51849;BME280;38952;51.090;-1.832;2023-02-14T04:19:56;101810.53;;;5.51;94.51
51849;BME280;38952;51.090;-1.832;2023-02-14T04:22:23;101837.16;;;5.69;94.30
51849;BME280;38952;51.090;-1.832;2023-02-14T04:24:56;101819.22;;;5.75;94.05
51849;BME280;38952;51.090;-1.832;2023-02-14T04:27:35;101809.81;;;5.71;94.52
51849;BME280;38952;51.090;-1.832;2023-02-14T04:30:20;101824.09;;;5.86;94.32
51849;BME280;38952;51.090;-1.832;2023-02-14T04:32:59;101803.56;;;5.70;94.20
51849;BME280;38952;51.090;-1.832;2023-02-14T04:35:35;101821.78;;;5.83;94.49
51849;BME280;38952;51.090;-1.832;2023-02-14T04:38:08;101801.19;;;5.60;94.55
51849;BME280;38952;51.090;-1.832;2023-02-14T04:40:36;101817.94;;;5.64;94.05
51849;BME280;38952;51.090;-1.832;2023-02-14T04:43:03;101804.03;;;5.46;94.64
51849;BME280;38952;51.090;-1.832;2023-02-14T04:45:31;101823.50;;;5.56;94.68
51849;BME280;38952;51.090;-1.832;2023-02-14T04:48:00;101788.75;;;5.38;94.71
51849;BME280;38952;51.090;-1.832;2023-02-14T04:50:25;101790.78;;;5.36;94.42
51849;BME280;38952;51.090;-1.832;2023-02-14T04:52:54;101808.84;;;5.50;95.71
51849;BME280;38952;51.090;-1.832;2023-02-14T04:55:22;101781.28;;;5.47;95.46
51849;BME280;38952;51.090;-1.832;2023-02-14T04:57:51;101754.50;;;5.37;94.56
51849;BME280;38952;51.090;-1.832;2023-02-14T05:00:30;101795.81;;;5.67;95.23
51849;BME280;38952;51.090;-1.832;2023-02-14T05:03:01;101781.56;;;5.58;94.79
51849;BME280;38952;51.090;-1.832;2023-02-14T05:05:27;101762.50;;;5.45;94.10
51849;BME280;38952;51.090;-1.832;2023-02-14T05:07:55;101808.09;;;5.63;94.75
51849;BME280;38952;51.090;-1.832;2023-02-14T05:10:20;101764.53;;;5.36;94.82
51849;BME280;38952;51.090;-1.832;2023-02-14T05:13:21;101774.34;;;5.37;95.72
51849;BME280;38952;51.090;-1.832;2023-02-14T05:16:07;101796.34;;;5.49;95.10
51849;BME280;38952;51.090;-1.832;2023-02-14T05:18:56;101757.81;;;5.32;95.53
51849;BME280;38952;51.090;-1.832;2023-02-14T05:21:24;101802.94;;;5.68;96.31
51849;BME280;38952;51.090;-1.832;2023-02-14T05:30:51;101775.59;;;5.76;95.59
51849;BME280;38952;51.090;-1.832;2023-02-14T05:33:42;101799.06;;;5.91;94.46
51849;BME280;38952;51.090;-1.832;2023-02-14T05:36:20;101787.34;;;5.84;94.81
51849;BME280;38952;51.090;-1.832;2023-02-14T05:41:51;101806.69;;;6.02;95.60
51849;BME280;38952;51.090;-1.832;2023-02-14T05:44:22;101789.56;;;6.02;95.65
51849;BME280;38952;51.090;-1.832;2023-02-14T05:46:52;101785.78;;;6.03;94.78
51849;BME280;38952;51.090;-1.832;2023-02-14T05:49:36;101789.34;;;6.03;95.27
51849;BME280;38952;51.090;-1.832;2023-02-14T05:52:01;101774.50;;;5.99;95.15
51849;BME280;38952;51.090;-1.832;2023-02-14T05:54:32;101799.25;;;6.18;95.39
51849;BME280;38952;51.090;-1.832;2023-02-14T05:57:13;101775.38;;;6.06;95.60
51849;BME280;38952;51.090;-1.832;2023-02-14T05:59:48;101788.94;;;6.06;95.48
51849;BME280;38952;51.090;-1.832;2023-02-14T06:02:34;101803.41;;;6.14;94.83
51849;BME280;38952;51.090;-1.832;2023-02-14T06:05:03;101772.69;;;5.78;95.41
51849;BME280;38952;51.090;-1.832;2023-02-14T06:07:38;101785.44;;;5.77;95.29
51849;BME280;38952;51.090;-1.832;2023-02-14T06:10:19;101809.84;;;5.77;96.19
51849;BME280;38952;51.090;-1.832;2023-02-14T06:12:48;101801.88;;;5.69;96.75
51849;BME280;38952;51.090;-1.832;2023-02-14T06:15:19;101780.88;;;5.50;98.01
51849;BME280;38952;51.090;-1.832;2023-02-14T06:17:50;101775.66;;;5.48;97.51
51849;BME280;38952;51.090;-1.832;2023-02-14T06:20:34;101809.38;;;5.67;97.89
51849;BME280;38952;51.090;-1.832;2023-02-14T06:23:03;101769.63;;;5.53;98.38
51849;BME280;38952;51.090;-1.832;2023-02-14T06:25:30;101781.81;;;5.64;99.03
51849;BME280;38952;51.090;-1.832;2023-02-14T06:28:05;101771.72;;;5.51;98.56
51849;BME280;38952;51.090;-1.832;2023-02-14T06:30:31;101788.00;;;5.51;98.22
51849;BME280;38952;51.090;-1.832;2023-02-14T06:32:56;101769.50;;;5.33;98.78
51849;BME280;38952;51.090;-1.832;2023-02-14T06:35:22;101812.91;;;5.61;99.66
51849;BME280;38952;51.090;-1.832;2023-02-14T06:37:47;101809.97;;;5.63;99.83
51849;BME280;38952;51.090;-1.832;2023-02-14T06:40:13;101811.47;;;5.65;100.00
51849;BME280;38952;51.090;-1.832;2023-02-14T06:42:39;101811.06;;;5.68;100.00
51849;BME280;38952;51.090;-1.832;2023-02-14T06:45:05;101807.28;;;5.69;99.85
51849;BME280;38952;51.090;-1.832;2023-02-14T06:47:31;101807.34;;;5.76;100.00
51849;BME280;38952;51.090;-1.832;2023-02-14T06:49:56;101805.06;;;5.80;100.00
51849;BME280;38952;51.090;-1.832;2023-02-14T06:52:24;101810.31;;;5.81;100.00
51849;BME280;38952;51.090;-1.832;2023-02-14T06:54:50;101812.81;;;5.83;100.00
51849;BME280;38952;51.090;-1.832;2023-02-14T06:57:15;101823.69;;;5.89;100.00
51849;BME280;38952;51.090;-1.832;2023-02-14T06:59:40;101830.00;;;5.90;100.00
51849;BME280;38952;51.090;-1.832;2023-02-14T07:02:09;101831.66;;;5.91;100.00
51849;BME280;38952;51.090;-1.832;2023-02-14T07:04:34;101825.38;;;5.90;100.00
51849;BME280;38952;51.090;-1.832;2023-02-14T07:07:00;101826.22;;;5.91;100.00
51849;BME280;38952;51.090;-1.832;2023-02-14T07:09:25;101809.03;;;5.77;100.00
51849;BME280;38952;51.090;-1.832;2023-02-14T07:11:51;101821.16;;;5.81;100.00
51849;BME280;38952;51.090;-1.832;2023-02-14T07:14:16;101829.13;;;5.83;100.00
51849;BME280;38952;51.090;-1.832;2023-02-14T07:16:41;101827.03;;;5.85;100.00
51849;BME280;38952;51.090;-1.832;2023-02-14T07:19:07;101833.09;;;5.87;100.00
51849;BME280;38952;51.090;-1.832;2023-02-14T07:21:32;101839.59;;;5.92;100.00
51849;BME280;38952;51.090;-1.832;2023-02-14T07:23:58;101831.66;;;5.91;100.00
51849;BME280;38952;51.090;-1.832;2023-02-14T07:26:23;101840.44;;;5.93;100.00
51849;BME280;38952;51.090;-1.832;2023-02-14T07:28:49;101844.59;;;5.89;100.00
51849;BME280;38952;51.090;-1.832;2023-02-14T07:31:17;101830.38;;;5.87;100.00
51849;BME280;38952;51.090;-1.832;2023-02-14T07:33:51;101822.81;;;5.82;100.00
51849;BME280;38952;51.090;-1.832;2023-02-14T07:36:16;101833.34;;;5.92;100.00
51849;BME280;38952;51.090;-1.832;2023-02-14T07:38:42;101836.13;;;5.99;100.00
51849;BME280;38952;51.090;-1.832;2023-02-14T07:41:07;101840.50;;;6.00;100.00
51849;BME280;38952;51.090;-1.832;2023-02-14T07:43:33;101830.91;;;6.04;100.00
51849;BME280;38952;51.090;-1.832;2023-02-14T07:45:59;101832.59;;;6.05;100.00
51849;BME280;38952;51.090;-1.832;2023-02-14T07:48:25;101839.09;;;6.10;100.00
51849;BME280;38952;51.090;-1.832;2023-02-14T07:50:59;101841.41;;;6.14;100.00
51849;BME280;38952;51.090;-1.832;2023-02-14T07:53:46;101842.69;;;6.18;100.00
51849;BME280;38952;51.090;-1.832;2023-02-14T07:56:14;101839.31;;;6.16;100.00
51849;BME280;38952;51.090;-1.832;2023-02-14T07:58:39;101844.34;;;6.19;100.00
51849;BME280;38952;51.090;-1.832;2023-02-14T08:01:05;101837.06;;;6.19;100.00
51849;BME280;38952;51.090;-1.832;2023-02-14T08:03:33;101841.22;;;6.22;100.00
51849;BME280;38952;51.090;-1.832;2023-02-14T08:05:58;101854.41;;;6.25;100.00
51849;BME280;38952;51.090;-1.832;2023-02-14T08:08:29;101845.63;;;6.23;100.00
51849;BME280;38952;51.090;-1.832;2023-02-14T08:10:55;101830.16;;;6.17;100.00
51849;BME280;38952;51.090;-1.832;2023-02-14T08:13:21;101833.47;;;6.19;100.00
51849;BME280;38952;51.090;-1.832;2023-02-14T08:15:49;101841.63;;;6.19;100.00
51849;BME280;38952;51.090;-1.832;2023-02-14T08:18:47;101836.78;;;6.07;100.00
51849;BME280;38952;51.090;-1.832;2023-02-14T08:21:13;101844.75;;;6.16;100.00
51849;BME280;38952;51.090;-1.832;2023-02-14T08:23:41;101840.59;;;6.20;100.00
51849;BME280;38952;51.090;-1.832;2023-02-14T08:26:07;101852.53;;;6.25;100.00
51849;BME280;38952;51.090;-1.832;2023-02-14T08:28:33;101848.97;;;6.25;100.00
51849;BME280;38952;51.090;-1.832;2023-02-14T08:31:00;101847.72;;;6.21;100.00
51849;BME280;38952;51.090;-1.832;2023-02-14T08:33:28;101855.66;;;6.22;100.00
51849;BME280;38952;51.090;-1.832;2023-02-14T08:35:54;101847.28;;;6.17;100.00
51849;BME280;38952;51.090;-1.832;2023-02-14T08:38:21;101824.66;;;6.10;100.00
51849;BME280;38952;51.090;-1.832;2023-02-14T08:40:47;101842.28;;;6.21;100.00
51849;BME280;38952;51.090;-1.832;2023-02-14T08:43:13;101845.63;;;6.23;100.00
51849;BME280;38952;51.090;-1.832;2023-02-14T08:51:38;101829.81;;;6.40;100.00
51849;BME280;38952;51.090;-1.832;2023-02-14T08:54:27;101858.53;;;6.62;100.00
51849;BME280;38952;51.090;-1.832;2023-02-14T08:57:01;101821.88;;;6.45;100.00
51849;BME280;38952;51.090;-1.832;2023-02-14T09:00:07;101835.50;;;6.52;100.00
51849;BME280;38952;51.090;-1.832;2023-02-14T09:02:40;101819.81;;;6.54;100.00
51849;BME280;38952;51.090;-1.832;2023-02-14T09:05:13;101836.78;;;6.56;100.00
51849;BME280;38952;51.090;-1.832;2023-02-14T09:07:39;101863.38;;;6.74;100.00
51849;BME280;38952;51.090;-1.832;2023-02-14T09:10:05;101874.66;;;6.77;100.00
51849;BME280;38952;51.090;-1.832;2023-02-14T09:12:40;101873.41;;;6.73;100.00
51849;BME280;38952;51.090;-1.832;2023-02-14T09:15:07;101868.84;;;6.80;100.00
51849;BME280;38952;51.090;-1.832;2023-02-14T09:17:36;101861.69;;;6.66;100.00
51849;BME280;38952;51.090;-1.832;2023-02-14T09:20:14;101853.09;;;6.56;100.00
51849;BME280;38952;51.090;-1.832;2023-02-14T09:22:40;101844.69;;;6.51;100.00
51849;BME280;38952;51.090;-1.832;2023-02-14T09:25:06;101850.56;;;6.61;100.00
51849;BME280;38952;51.090;-1.832;2023-02-14T09:27:31;101851.81;;;6.58;100.00
51849;BME280;38952;51.090;-1.832;2023-02-14T09:29:57;101860.84;;;6.72;100.00
51849;BME280;38952;51.090;-1.832;2023-02-14T09:32:22;101860.84;;;6.72;100.00
51849;BME280;38952;51.090;-1.832;2023-02-14T09:34:50;101842.25;;;6.69;100.00
51849;BME280;38952;51.090;-1.832;2023-02-14T09:37:34;101861.91;;;6.85;100.00
51849;BME280;38952;51.090;-1.832;2023-02-14T09:40:19;101838.66;;;6.62;100.00
51849;BME280;38952;51.090;-1.832;2023-02-14T09:42:50;101854.31;;;6.60;100.00
51849;BME280;38952;51.090;-1.832;2023-02-14T09:45:24;101857.94;;;6.74;100.00
51849;BME280;38952;51.090;-1.832;2023-02-14T09:47:55;101852.53;;;6.80;100.00
51849;BME280;38952;51.090;-1.832;2023-02-14T09:53:29;101839.09;;;6.79;100.00
51849;BME280;38952;51.090;-1.832;2023-02-14T10:01:57;101862.78;;;7.05;100.00
51849;BME280;38952;51.090;-1.832;2023-02-14T10:04:37;101866.78;;;7.09;100.00
51849;BME280;38952;51.090;-1.832;2023-02-14T10:10:09;101863.44;;;7.21;100.00
51849;BME280;38952;51.090;-1.832;2023-02-14T10:15:45;101843.34;;;7.35;100.00
51849;BME280;38952;51.090;-1.832;2023-02-14T10:18:52;101862.56;;;7.80;100.00
51849;BME280;38952;51.090;-1.832;2023-02-14T10:21:23;101853.28;;;8.08;100.00
51849;BME280;38952;51.090;-1.832;2023-02-14T10:24:10;101843.63;;;8.12;100.00
51849;BME280;38952;51.090;-1.832;2023-02-14T10:26:39;101860.75;;;8.26;99.80
51849;BME280;38952;51.090;-1.832;2023-02-14T10:29:14;101872.31;;;8.21;99.51
51849;BME280;38952;51.090;-1.832;2023-02-14T10:32:00;101861.63;;;8.27;99.27
51849;BME280;38952;51.090;-1.832;2023-02-14T10:40:00;101872.47;;;8.40;97.15
51849;BME280;38952;51.090;-1.832;2023-02-14T10:42:56;101874.16;;;8.41;97.37
51849;BME280;38952;51.090;-1.832;2023-02-14T10:48:13;101847.28;;;8.51;96.24
51849;BME280;38952;51.090;-1.832;2023-02-14T10:56:04;101854.47;;;9.60;93.33
51849;BME280;38952;51.090;-1.832;2023-02-14T10:58:38;101850.00;;;9.66;91.56
51849;BME280;38952;51.090;-1.832;2023-02-14T11:01:16;101848.50;;;9.88;91.35
51849;BME280;38952;51.090;-1.832;2023-02-14T11:04:04;101840.44;;;10.30;89.93
51849;BME280;38952;51.090;-1.832;2023-02-14T11:06:33;101848.63;;;10.68;85.70
51849;BME280;38952;51.090;-1.832;2023-02-14T11:08:58;101860.13;;;10.88;84.97
51849;BME280;38952;51.090;-1.832;2023-02-14T11:11:42;101859.00;;;10.77;83.72
51849;BME280;38952;51.090;-1.832;2023-02-14T11:14:33;101848.25;;;10.94;84.41
51849;BME280;38952;51.090;-1.832;2023-02-14T11:17:29;101823.53;;;11.13;83.14
51849;BME280;38952;51.090;-1.832;2023-02-14T11:22:46;101831.31;;;11.63;81.20
51849;BME280;38952;51.090;-1.832;2023-02-14T11:25:22;101842.53;;;11.97;80.74
51849;BME280;38952;51.090;-1.832;2023-02-14T11:28:01;101821.41;;;11.86;79.39
51849;BME280;38952;51.090;-1.832;2023-02-14T11:30:34;101829.28;;;11.94;79.81
51849;BME280;38952;51.090;-1.832;2023-02-14T11:33:00;101819.00;;;12.01;79.26
51849;BME280;38952;51.090;-1.832;2023-02-14T11:35:28;101820.41;;;12.16;79.02
51849;BME280;38952;51.090;-1.832;2023-02-14T11:38:06;101833.88;;;12.58;78.37
51849;BME280;38952;51.090;-1.832;2023-02-14T11:40:43;101829.06;;;13.62;77.13
51849;BME280;38952;51.090;-1.832;2023-02-14T11:45:39;101821.91;;;14.99;71.86
51849;BME280;38952;51.090;-1.832;2023-02-14T11:50:59;101817.00;;;14.52;70.37
51849;BME280;38952;51.090;-1.832;2023-02-14T11:53:46;101825.28;;;14.29;71.59
51849;BME280;38952;51.090;-1.832;2023-02-14T11:56:14;101818.53;;;15.24;71.63
51849;BME280;38952;51.090;-1.832;2023-02-14T11:58:57;101818.13;;;15.85;68.11
51849;BME280;38952;51.090;-1.832;2023-02-14T12:01:36;101811.59;;;17.12;67.92
51849;BME280;38952;51.090;-1.832;2023-02-14T12:04:16;101823.25;;;19.74;57.68
51849;BME280;38952;51.090;-1.832;2023-02-14T12:06:43;101811.84;;;19.22;56.41
51849;BME280;38952;51.090;-1.832;2023-02-14T12:12:00;101798.03;;;17.41;58.91
51849;BME280;38952;51.090;-1.832;2023-02-14T12:14:29;101788.56;;;16.49;60.55
51849;BME280;38952;51.090;-1.832;2023-02-14T12:17:03;101802.81;;;16.20;61.10
51849;BME280;38952;51.090;-1.832;2023-02-14T12:19:48;101807.44;;;15.99;61.58
51849;BME280;38952;51.090;-1.832;2023-02-14T12:22:21;101797.44;;;15.83;61.57
51849;BME280;38952;51.090;-1.832;2023-02-14T12:27:23;101776.88;;;18.52;57.25
51849;BME280;38952;51.090;-1.832;2023-02-14T12:30:02;101798.28;;;20.41;52.74
51849;BME280;38952;51.090;-1.832;2023-02-14T12:32:31;101800.03;;;20.56;49.66
51849;BME280;38952;51.090;-1.832;2023-02-14T12:35:20;101783.91;;;18.73;51.20
51849;BME280;38952;51.090;-1.832;2023-02-14T12:43:49;101782.06;;;19.03;52.93
51849;BME280;38952;51.090;-1.832;2023-02-14T12:48:55;101782.75;;;22.87;47.42
51849;BME280;38952;51.090;-1.832;2023-02-14T13:08:06;101752.47;;;36.24;26.28
51849;BME280;38952;51.090;-1.832;2023-02-14T13:13:44;101743.09;;;37.09;23.13
51849;BME280;38952;51.090;-1.832;2023-02-14T13:16:27;101737.53;;;38.54;22.74
51849;BME280;38952;51.090;-1.832;2023-02-14T13:21:36;101735.31;;;40.31;20.35
51849;BME280;38952;51.090;-1.832;2023-02-14T13:24:20;101719.50;;;40.79;19.44
51849;BME280;38952;51.090;-1.832;2023-02-14T13:26:55;101716.63;;;40.79;18.43
51849;BME280;38952;51.090;-1.832;2023-02-14T13:29:26;101705.91;;;41.33;18.76
51849;BME280;38952;51.090;-1.832;2023-02-14T13:32:13;101703.63;;;40.02;19.78
51849;BME280;38952;51.090;-1.832;2023-02-14T13:34:45;101703.63;;;39.58;19.93
51849;BME280;38952;51.090;-1.832;2023-02-14T13:37:25;101713.06;;;40.92;19.99
51849;BME280;38952;51.090;-1.832;2023-02-14T13:40:16;101679.97;;;41.82;18.57
51849;BME280;38952;51.090;-1.832;2023-02-14T13:42:50;101700.56;;;42.62;17.39
51849;BME280;38952;51.090;-1.832;2023-02-14T13:48:29;101683.91;;;43.87;15.80
51849;BME280;38952;51.090;-1.832;2023-02-14T13:54:37;101685.97;;;42.01;16.49
51849;BME280;38952;51.090;-1.832;2023-02-14T14:02:54;101652.06;;;40.91;17.35
51849;BME280;38952;51.090;-1.832;2023-02-14T14:10:58;101645.91;;;43.22;16.04
51849;BME280;38952;51.090;-1.832;2023-02-14T14:16:18;101651.59;;;41.84;15.89
51849;BME280;38952;51.090;-1.832;2023-02-14T14:18:47;101640.63;;;42.34;15.80
51849;BME280;38952;51.090;-1.832;2023-02-14T14:24:23;101634.38;;;42.87;15.58
51849;BME280;38952;51.090;-1.832;2023-02-14T14:29:37;101627.72;;;41.58;16.09
51849;BME280;38952;51.090;-1.832;2023-02-14T14:32:15;101630.25;;;41.85;16.13
51849;BME280;38952;51.090;-1.832;2023-02-14T14:34:53;101625.75;;;41.84;16.02
51849;BME280;38952;51.090;-1.832;2023-02-14T14:37:26;101617.13;;;41.84;15.45
51849;BME280;38952;51.090;-1.832;2023-02-14T14:39:58;101614.09;;;41.33;16.17
51849;BME280;38952;51.090;-1.832;2023-02-14T14:42:29;101608.53;;;40.43;16.59
51849;BME280;38952;51.090;-1.832;2023-02-14T14:45:07;101602.66;;;39.77;16.83
51849;BME280;38952;51.090;-1.832;2023-02-14T14:47:40;101595.94;;;39.00;16.97
51849;BME280;38952;51.090;-1.832;2023-02-14T14:50:16;101578.53;;;38.44;17.22
51849;BME280;38952;51.090;-1.832;2023-02-14T14:52:48;101590.47;;;38.62;17.19
51849;BME280;38952;51.090;-1.832;2023-02-14T14:55:19;101590.09;;;39.07;17.33
51849;BME280;38952;51.090;-1.832;2023-02-14T14:57:55;101570.78;;;39.35;17.23
51849;BME280;38952;51.090;-1.832;2023-02-14T15:00:26;101581.25;;;39.66;17.02
51849;BME280;38952;51.090;-1.832;2023-02-14T15:03:05;101588.00;;;39.75;16.58
51849;BME280;38952;51.090;-1.832;2023-02-14T15:05:40;101571.16;;;39.77;16.60
51849;BME280;38952;51.090;-1.832;2023-02-14T15:10:54;101534.06;;;38.42;17.19
51849;BME280;38952;51.090;-1.832;2023-02-14T15:13:37;101543.44;;;36.78;17.66
51849;BME280;38952;51.090;-1.832;2023-02-14T15:16:37;101532.56;;;34.88;18.69
51849;BME280;38952;51.090;-1.832;2023-02-14T15:19:21;101546.09;;;32.94;20.14
51849;BME280;38952;51.090;-1.832;2023-02-14T15:21:51;101538.09;;;31.79;21.18
51849;BME280;38952;51.090;-1.832;2023-02-14T15:24:19;101524.75;;;30.92;22.20
51849;BME280;38952;51.090;-1.832;2023-02-14T15:26:46;101536.53;;;30.71;22.77
51849;BME280;38952;51.090;-1.832;2023-02-14T15:29:24;101507.25;;;30.83;22.93
51849;BME280;38952;51.090;-1.832;2023-02-14T15:31:51;101507.13;;;30.49;22.53
51849;BME280;38952;51.090;-1.832;2023-02-14T15:34:21;101526.47;;;30.27;23.43
51849;BME280;38952;51.090;-1.832;2023-02-14T15:36:51;101509.03;;;29.79;23.18
51849;BME280;38952;51.090;-1.832;2023-02-14T15:39:27;101514.25;;;29.22;24.22
51849;BME280;38952;51.090;-1.832;2023-02-14T15:41:56;101512.03;;;28.96;24.30
51849;BME280;38952;51.090;-1.832;2023-02-14T15:44:23;101516.81;;;27.87;25.24
51849;BME280;38952;51.090;-1.832;2023-02-14T15:46:54;101503.56;;;26.94;26.07
51849;BME280;38952;51.090;-1.832;2023-02-14T15:49:25;101512.22;;;26.76;26.97
51849;BME280;38952;51.090;-1.832;2023-02-14T15:51:54;101517.75;;;26.73;26.75
51849;BME280;38952;51.090;-1.832;2023-02-14T15:54:24;101507.56;;;26.10;27.14
51849;BME280;38952;51.090;-1.832;2023-02-14T15:56:55;101498.16;;;25.09;28.23
51849;BME280;38952;51.090;-1.832;2023-02-14T15:59:25;101509.09;;;24.54;28.58
51849;BME280;38952;51.090;-1.832;2023-02-14T16:02:27;101502.72;;;23.45;29.89
51849;BME280;38952;51.090;-1.832;2023-02-14T16:04:47;101496.78;;;22.72;31.91
51849;BME280;38952;51.090;-1.832;2023-02-14T16:07:24;101496.84;;;21.86;32.81
51849;BME280;38952;51.090;-1.832;2023-02-14T16:10:19;101494.16;;;21.22;34.04
51849;BME280;38952;51.090;-1.832;2023-02-14T16:12:58;101499.50;;;20.49;35.56
51849;BME280;38952;51.090;-1.832;2023-02-14T16:15:33;101496.25;;;19.81;35.99
51849;BME280;38952;51.090;-1.832;2023-02-14T16:18:00;101496.00;;;19.20;36.94
51849;BME280;38952;51.090;-1.832;2023-02-14T16:20:40;101495.97;;;18.28;39.02
51849;BME280;38952;51.090;-1.832;2023-02-14T16:23:35;101492.88;;;17.26;40.59
51849;BME280;38952;51.090;-1.832;2023-02-14T16:26:04;101500.31;;;16.55;41.97
51849;BME280;38952;51.090;-1.832;2023-02-14T16:28:31;101494.31;;;16.12;43.68
51849;BME280;38952;51.090;-1.832;2023-02-14T16:30:58;101492.06;;;15.68;43.60
51849;BME280;38952;51.090;-1.832;2023-02-14T16:33:56;101482.41;;;15.40;44.99
51849;BME280;38952;51.090;-1.832;2023-02-14T16:36:31;101489.75;;;15.08;45.77
51849;BME280;38952;51.090;-1.832;2023-02-14T16:39:16;101476.94;;;14.71;47.39
51849;BME280;38952;51.090;-1.832;2023-02-14T16:41:50;101493.78;;;14.37;48.34
51849;BME280;38952;51.090;-1.832;2023-02-14T16:44:29;101500.63;;;13.92;50.58
51849;BME280;38952;51.090;-1.832;2023-02-14T16:46:57;101478.28;;;13.51;50.46
51849;BME280;38952;51.090;-1.832;2023-02-14T16:49:25;101468.31;;;13.22;51.14
51849;BME280;38952;51.090;-1.832;2023-02-14T16:51:51;101472.06;;;12.89;52.65
51849;BME280;38952;51.090;-1.832;2023-02-14T16:54:20;101481.09;;;12.67;53.29
51849;BME280;38952;51.090;-1.832;2023-02-14T16:57:01;101482.34;;;12.37;54.29
51849;BME280;38952;51.090;-1.832;2023-02-14T16:59:28;101483.88;;;12.11;55.60
51849;BME280;38952;51.090;-1.832;2023-02-14T17:01:56;101489.59;;;11.93;56.25
51849;BME280;38952;51.090;-1.832;2023-02-14T17:04:22;101485.09;;;11.69;56.47
51849;BME280;38952;51.090;-1.832;2023-02-14T17:06:54;101491.63;;;11.51;56.33
51849;BME280;38952;51.090;-1.832;2023-02-14T17:09:26;101486.03;;;11.29;56.94
51849;BME280;38952;51.090;-1.832;2023-02-14T17:12:00;101499.06;;;11.10;57.50
51849;BME280;38952;51.090;-1.832;2023-02-14T17:14:29;101486.78;;;10.84;57.68
51849;BME280;38952;51.090;-1.832;2023-02-14T17:16:57;101498.47;;;10.68;57.38
51849;BME280;38952;51.090;-1.832;2023-02-14T17:19:24;101497.66;;;10.43;57.51
51849;BME280;38952;51.090;-1.832;2023-02-14T17:21:50;101492.88;;;10.27;57.99
51849;BME280;38952;51.090;-1.832;2023-02-14T17:24:15;101504.16;;;10.07;57.98
51849;BME280;38952;51.090;-1.832;2023-02-14T17:26:41;101502.59;;;9.87;58.09
51849;BME280;38952;51.090;-1.832;2023-02-14T17:29:06;101502.19;;;9.72;58.59
51849;BME280;38952;51.090;-1.832;2023-02-14T17:31:33;101500.00;;;9.50;58.34
51849;BME280;38952;51.090;-1.832;2023-02-14T17:33:58;101498.53;;;9.36;58.49
51849;BME280;38952;51.090;-1.832;2023-02-14T17:36:26;101500.75;;;9.27;58.89
51849;BME280;38952;51.090;-1.832;2023-02-14T17:38:53;101487.50;;;9.12;58.86
51849;BME280;38952;51.090;-1.832;2023-02-14T17:41:24;101499.28;;;9.13;58.71
51849;BME280;38952;51.090;-1.832;2023-02-14T17:43:54;101475.28;;;8.84;59.27
51849;BME280;38952;51.090;-1.832;2023-02-14T17:46:20;101492.50;;;8.85;59.30
51849;BME280;38952;51.090;-1.832;2023-02-14T17:48:48;101480.53;;;8.67;59.80
51849;BME280;38952;51.090;-1.832;2023-02-14T17:51:15;101482.84;;;8.64;59.82
51849;BME280;38952;51.090;-1.832;2023-02-14T17:53:45;101493.16;;;8.62;60.59
51849;BME280;38952;51.090;-1.832;2023-02-14T17:56:14;101507.69;;;8.55;60.43